createdAt,value
2017-08-19T00:00:04.001Z,21.19
2017-08-19T00:00:36.265Z,21.18
2017-08-19T00:01:08.527Z,21.13
2017-08-19T00:01:40.782Z,21.12
2017-08-19T00:02:13.084Z,21.08
2017-08-19T00:02:45.356Z,21.18
2017-08-19T00:03:17.630Z,21.11
2017-08-19T00:03:49.916Z,21.08
2017-08-19T00:04:22.205Z,21.04
2017-08-19T00:04:54.490Z,21.06
2017-08-19T00:05:26.778Z,21.12
2017-08-19T00:05:59.067Z,21.03
2017-08-19T00:06:31.349Z,21.12
2017-08-19T00:07:03.667Z,21.09
2017-08-19T00:07:35.973Z,21
2017-08-19T00:08:08.255Z,21.11
2017-08-19T00:08:40.545Z,21.03
2017-08-19T00:09:12.812Z,21.01
2017-08-19T00:09:45.088Z,21.11
2017-08-19T00:10:17.363Z,21.09
2017-08-19T00:10:49.628Z,21.13
2017-08-19T00:11:21.925Z,21.04
2017-08-19T00:11:54.209Z,21.04
2017-08-19T00:12:26.499Z,21.08
2017-08-19T00:12:58.773Z,21.01
2017-08-19T00:13:31.029Z,21.09
2017-08-19T00:14:03.297Z,21.04
2017-08-19T00:14:35.577Z,21.04
2017-08-19T00:15:07.839Z,21.03
2017-08-19T00:15:40.085Z,21.09
2017-08-19T00:16:12.381Z,21.08
2017-08-19T00:16:44.656Z,21.06
2017-08-19T00:17:16.923Z,21.12
2017-08-19T00:17:49.182Z,21.01
2017-08-19T00:18:21.578Z,21.01
2017-08-19T00:18:53.837Z,21.03
2017-08-19T00:19:26.120Z,21
2017-08-19T00:19:58.354Z,21.01
2017-08-19T00:20:30.626Z,21.06
2017-08-19T00:21:02.890Z,21.06
2017-08-19T00:21:35.173Z,20.98
2017-08-19T00:22:07.458Z,20.98
2017-08-19T00:22:39.743Z,21
2017-08-19T00:23:11.982Z,21.01
2017-08-19T00:23:44.279Z,20.88
2017-08-19T00:24:16.587Z,20.93
2017-08-19T00:24:48.886Z,20.97
2017-08-19T00:25:21.177Z,20.91
2017-08-19T00:25:53.464Z,20.91
2017-08-19T00:26:25.753Z,21.01
2017-08-19T00:26:58.030Z,21.06
2017-08-19T00:27:30.318Z,20.94
2017-08-19T00:28:02.634Z,21
2017-08-19T00:28:34.918Z,20.93
2017-08-19T00:29:07.208Z,20.96
2017-08-19T00:29:39.493Z,20.94
2017-08-19T00:30:11.773Z,20.94
2017-08-19T00:30:44.047Z,20.96
2017-08-19T00:31:16.333Z,21.01
2017-08-19T00:31:48.621Z,20.96
2017-08-19T00:32:20.892Z,21
2017-08-19T00:32:53.186Z,20.98
2017-08-19T00:33:25.453Z,20.91
2017-08-19T00:33:57.747Z,20.97
2017-08-19T00:34:30.001Z,21
2017-08-19T00:35:02.272Z,20.93
2017-08-19T00:35:34.550Z,20.97
2017-08-19T00:36:06.813Z,20.85
2017-08-19T00:36:39.068Z,20.91
2017-08-19T00:37:11.318Z,20.91
2017-08-19T00:37:43.556Z,20.97
2017-08-19T00:38:15.809Z,20.9
2017-08-19T00:38:48.059Z,20.91
2017-08-19T00:39:20.312Z,20.9
2017-08-19T00:39:52.595Z,20.93
2017-08-19T00:40:24.868Z,20.91
2017-08-19T00:40:57.139Z,20.9
2017-08-19T00:41:29.453Z,20.85
2017-08-19T00:42:01.726Z,20.86
2017-08-19T00:42:33.984Z,20.93
2017-08-19T00:43:06.252Z,20.9
2017-08-19T00:43:38.534Z,20.94
2017-08-19T00:44:10.827Z,20.97
2017-08-19T00:44:43.113Z,20.88
2017-08-19T00:45:15.390Z,20.94
2017-08-19T00:45:47.702Z,20.93
2017-08-19T00:46:19.976Z,20.86
2017-08-19T00:46:52.248Z,20.9
2017-08-19T00:47:24.571Z,20.94
2017-08-19T00:47:56.861Z,20.96
2017-08-19T00:48:29.139Z,20.93
2017-08-19T00:49:01.426Z,20.93
2017-08-19T00:49:33.718Z,20.93
2017-08-19T00:50:06.010Z,20.91
2017-08-19T00:50:38.295Z,20.88
2017-08-19T00:51:10.587Z,20.88
2017-08-19T00:51:42.897Z,20.81
2017-08-19T00:52:15.178Z,20.9
2017-08-19T00:52:47.488Z,20.83
2017-08-19T00:53:19.799Z,20.79
2017-08-19T00:53:52.076Z,20.78
2017-08-19T00:54:24.359Z,20.81
2017-08-19T00:54:56.664Z,20.81
2017-08-19T00:55:28.959Z,20.83
2017-08-19T00:56:01.237Z,20.82
2017-08-19T00:56:33.523Z,20.83
2017-08-19T00:57:05.791Z,20.85
2017-08-19T00:57:38.078Z,20.9
2017-08-19T00:58:10.364Z,20.81
2017-08-19T00:58:42.648Z,20.81
2017-08-19T00:59:14.941Z,20.85
2017-08-19T00:59:47.217Z,20.67
2017-08-19T01:00:19.511Z,20.82
2017-08-19T01:00:51.796Z,20.86
2017-08-19T01:01:24.093Z,20.85
2017-08-19T01:01:56.388Z,20.81
2017-08-19T01:02:28.665Z,20.82
2017-08-19T01:03:01.001Z,20.83
2017-08-19T01:03:33.298Z,20.85
2017-08-19T01:04:06.413Z,20.83
2017-08-19T01:04:38.814Z,20.71
2017-08-19T01:05:11.080Z,20.81
2017-08-19T01:05:43.333Z,20.76
2017-08-19T01:06:15.605Z,20.82
2017-08-19T01:06:47.843Z,20.82
2017-08-19T01:07:20.196Z,20.82
2017-08-19T01:07:52.458Z,20.86
2017-08-19T01:08:24.783Z,20.74
2017-08-19T01:08:57.023Z,20.64
2017-08-19T01:09:29.304Z,20.68
2017-08-19T01:10:01.584Z,20.75
2017-08-19T01:10:33.842Z,20.76
2017-08-19T01:11:06.094Z,20.75
2017-08-19T01:11:38.356Z,20.78
2017-08-19T01:12:10.611Z,20.72
2017-08-19T01:12:42.893Z,20.64
2017-08-19T01:13:15.159Z,20.81
2017-08-19T01:13:47.422Z,20.72
2017-08-19T01:14:19.696Z,20.78
2017-08-19T01:14:51.953Z,20.72
2017-08-19T01:15:24.241Z,20.76
2017-08-19T01:15:56.629Z,20.71
2017-08-19T01:16:28.883Z,20.67
2017-08-19T01:17:01.147Z,20.75
2017-08-19T01:17:33.408Z,20.76
2017-08-19T01:18:05.665Z,20.68
2017-08-19T01:18:38.857Z,20.67
2017-08-19T01:19:11.136Z,20.79
2017-08-19T01:19:43.397Z,20.72
2017-08-19T01:20:15.640Z,20.78
2017-08-19T01:20:47.896Z,20.68
2017-08-19T01:21:20.118Z,20.71
2017-08-19T01:21:52.389Z,20.72
2017-08-19T01:22:24.674Z,20.71
2017-08-19T01:22:56.983Z,20.68
2017-08-19T01:23:29.282Z,20.67
2017-08-19T01:24:01.567Z,20.75
2017-08-19T01:24:33.861Z,20.68
2017-08-19T01:25:06.171Z,20.71
2017-08-19T01:25:38.454Z,20.71
2017-08-19T01:26:10.746Z,20.71
2017-08-19T01:26:43.019Z,20.75
2017-08-19T01:27:15.336Z,20.76
2017-08-19T01:27:47.649Z,20.68
2017-08-19T01:28:19.951Z,20.68
2017-08-19T01:28:52.214Z,20.67
2017-08-19T01:29:24.497Z,20.75
2017-08-19T01:29:56.786Z,20.71
2017-08-19T01:30:29.070Z,20.72
2017-08-19T01:31:01.358Z,20.64
2017-08-19T01:31:33.640Z,20.68
2017-08-19T01:32:05.956Z,20.64
2017-08-19T01:32:38.235Z,20.67
2017-08-19T01:33:10.509Z,20.67
2017-08-19T01:33:42.792Z,20.64
2017-08-19T01:34:15.064Z,20.68
2017-08-19T01:34:47.312Z,20.68
2017-08-19T01:35:19.596Z,20.75
2017-08-19T01:35:51.868Z,20.63
2017-08-19T01:36:24.188Z,20.67
2017-08-19T01:36:56.437Z,20.61
2017-08-19T01:37:28.726Z,20.64
2017-08-19T01:38:00.979Z,20.63
2017-08-19T01:38:33.213Z,20.68
2017-08-19T01:39:05.475Z,20.64
2017-08-19T01:39:37.733Z,20.63
2017-08-19T01:40:09.984Z,20.66
2017-08-19T01:40:42.215Z,20.61
2017-08-19T01:41:14.452Z,20.67
2017-08-19T01:41:46.737Z,20.61
2017-08-19T01:42:19.004Z,20.67
2017-08-19T01:42:51.275Z,20.6
2017-08-19T01:43:23.539Z,20.6
2017-08-19T01:43:55.825Z,20.6
2017-08-19T01:44:28.088Z,20.63
2017-08-19T01:45:00.344Z,20.61
2017-08-19T01:45:32.598Z,20.63
2017-08-19T01:46:04.841Z,20.56
2017-08-19T01:46:37.111Z,20.61
2017-08-19T01:47:09.372Z,20.67
2017-08-19T01:47:41.648Z,20.56
2017-08-19T01:48:13.917Z,20.57
2017-08-19T01:48:46.248Z,20.57
2017-08-19T01:49:18.517Z,20.57
2017-08-19T01:49:50.772Z,20.56
2017-08-19T01:50:23.119Z,20.57
2017-08-19T01:50:55.417Z,20.57
2017-08-19T01:51:27.720Z,20.58
2017-08-19T01:52:00.003Z,20.51
2017-08-19T01:52:32.254Z,20.61
2017-08-19T01:53:04.531Z,20.58
2017-08-19T01:53:36.804Z,20.57
2017-08-19T01:54:09.068Z,20.6
2017-08-19T01:54:41.317Z,20.53
2017-08-19T01:55:13.583Z,20.63
2017-08-19T01:55:45.841Z,20.6
2017-08-19T01:56:18.097Z,20.57
2017-08-19T01:56:50.379Z,20.6
2017-08-19T01:57:22.644Z,20.6
2017-08-19T01:57:54.902Z,20.58
2017-08-19T01:58:27.165Z,20.57
2017-08-19T01:58:59.425Z,20.6
2017-08-19T01:59:31.685Z,20.56
2017-08-19T02:00:03.944Z,20.58
2017-08-19T02:00:36.888Z,20.56
2017-08-19T02:01:09.175Z,20.53
2017-08-19T02:01:41.492Z,20.57
2017-08-19T02:02:13.762Z,20.56
2017-08-19T02:02:46.039Z,20.6
2017-08-19T02:03:18.294Z,20.58
2017-08-19T02:03:50.566Z,20.53
2017-08-19T02:04:22.829Z,20.56
2017-08-19T02:04:55.116Z,20.53
2017-08-19T02:05:27.387Z,20.49
2017-08-19T02:05:59.668Z,20.54
2017-08-19T02:06:31.968Z,20.54
2017-08-19T02:07:04.259Z,20.49
2017-08-19T02:07:36.539Z,20.57
2017-08-19T02:08:08.827Z,20.51
2017-08-19T02:08:41.115Z,20.54
2017-08-19T02:09:13.384Z,20.53
2017-08-19T02:09:45.699Z,20.49
2017-08-19T02:10:17.996Z,20.48
2017-08-19T02:10:50.287Z,20.51
2017-08-19T02:11:22.579Z,20.51
2017-08-19T02:11:54.870Z,20.51
2017-08-19T02:12:27.188Z,20.4
2017-08-19T02:12:59.476Z,20.53
2017-08-19T02:13:31.756Z,20.49
2017-08-19T02:14:04.020Z,20.49
2017-08-19T02:14:36.275Z,20.54
2017-08-19T02:15:09.493Z,20.48
2017-08-19T02:15:41.759Z,20.49
2017-08-19T02:16:14.076Z,20.53
2017-08-19T02:16:46.336Z,20.48
2017-08-19T02:17:18.586Z,20.49
2017-08-19T02:17:50.917Z,20.37
2017-08-19T02:18:23.182Z,20.49
2017-08-19T02:18:55.434Z,20.46
2017-08-19T02:19:27.713Z,20.56
2017-08-19T02:19:59.988Z,20.41
2017-08-19T02:20:32.263Z,20.44
2017-08-19T02:21:04.520Z,20.35
2017-08-19T02:21:36.773Z,20.41
2017-08-19T02:22:09.051Z,20.48
2017-08-19T02:22:41.340Z,20.38
2017-08-19T02:23:13.591Z,20.4
2017-08-19T02:23:45.851Z,20.35
2017-08-19T02:24:18.249Z,20.38
2017-08-19T02:24:50.492Z,20.49
2017-08-19T02:25:22.758Z,20.4
2017-08-19T02:25:55.016Z,20.41
2017-08-19T02:26:27.277Z,20.41
2017-08-19T02:26:59.517Z,20.42
2017-08-19T02:27:31.780Z,20.38
2017-08-19T02:28:04.088Z,20.48
2017-08-19T02:28:36.392Z,20.44
2017-08-19T02:29:08.665Z,20.51
2017-08-19T02:29:40.938Z,20.46
2017-08-19T02:30:13.229Z,20.41
2017-08-19T02:30:45.491Z,20.46
2017-08-19T02:31:17.747Z,20.38
2017-08-19T02:31:50.003Z,20.53
2017-08-19T02:32:22.288Z,20.53
2017-08-19T02:32:54.587Z,20.46
2017-08-19T02:33:26.858Z,20.41
2017-08-19T02:33:59.122Z,20.32
2017-08-19T02:34:31.351Z,20.37
2017-08-19T02:35:03.604Z,20.35
2017-08-19T02:35:35.880Z,20.49
2017-08-19T02:36:08.154Z,20.48
2017-08-19T02:36:40.430Z,20.42
2017-08-19T02:37:12.686Z,20.32
2017-08-19T02:37:44.937Z,20.4
2017-08-19T02:38:17.198Z,20.44
2017-08-19T02:38:49.543Z,20.44
2017-08-19T02:39:21.946Z,20.38
2017-08-19T02:39:54.204Z,20.38
2017-08-19T02:40:26.467Z,20.44
2017-08-19T02:40:58.786Z,20.37
2017-08-19T02:41:31.063Z,20.35
2017-08-19T02:42:03.333Z,20.37
2017-08-19T02:42:35.585Z,20.37
2017-08-19T02:43:07.833Z,20.42
2017-08-19T02:43:40.100Z,20.38
2017-08-19T02:44:13.341Z,20.38
2017-08-19T02:44:45.587Z,20.38
2017-08-19T02:45:17.841Z,20.38
2017-08-19T02:45:50.120Z,20.32
2017-08-19T02:46:22.380Z,20.38
2017-08-19T02:46:54.651Z,20.38
2017-08-19T02:47:26.930Z,20.38
2017-08-19T02:47:59.205Z,20.38
2017-08-19T02:48:31.455Z,20.41
2017-08-19T02:49:03.692Z,20.32
2017-08-19T02:49:35.953Z,20.41
2017-08-19T02:50:08.223Z,20.37
2017-08-19T02:50:40.494Z,20.4
2017-08-19T02:51:13.367Z,20.38
2017-08-19T02:51:45.631Z,20.35
2017-08-19T02:52:17.900Z,20.35
2017-08-19T02:52:50.160Z,20.37
2017-08-19T02:53:23.361Z,20.38
2017-08-19T02:53:55.621Z,20.27
2017-08-19T02:54:28.022Z,20.34
2017-08-19T02:55:00.292Z,20.34
2017-08-19T02:55:32.536Z,20.34
2017-08-19T02:56:04.959Z,20.26
2017-08-19T02:56:37.224Z,20.35
2017-08-19T02:57:09.482Z,20.25
2017-08-19T02:57:41.752Z,20.37
2017-08-19T02:58:14.045Z,20.26
2017-08-19T02:58:46.320Z,20.32
2017-08-19T02:59:18.604Z,20.23
2017-08-19T02:59:50.880Z,20.32
2017-08-19T03:00:23.145Z,20.23
2017-08-19T03:00:55.473Z,20.25
2017-08-19T03:01:27.763Z,20.26
2017-08-19T03:02:00.032Z,20.25
2017-08-19T03:02:32.296Z,20.22
2017-08-19T03:03:04.561Z,20.26
2017-08-19T03:03:36.829Z,20.26
2017-08-19T03:04:09.086Z,20.26
2017-08-19T03:04:41.356Z,20.27
2017-08-19T03:05:13.622Z,20.26
2017-08-19T03:05:45.882Z,20.23
2017-08-19T03:06:18.135Z,20.27
2017-08-19T03:06:50.431Z,20.3
2017-08-19T03:07:22.712Z,20.26
2017-08-19T03:07:54.990Z,20.23
2017-08-19T03:08:27.270Z,20.23
2017-08-19T03:08:59.540Z,20.23
2017-08-19T03:09:31.829Z,20.27
2017-08-19T03:10:04.085Z,20.3
2017-08-19T03:10:36.341Z,20.3
2017-08-19T03:11:08.618Z,20.32
2017-08-19T03:11:40.859Z,20.2
2017-08-19T03:12:13.132Z,20.29
2017-08-19T03:12:45.384Z,20.26
2017-08-19T03:13:17.642Z,20.3
2017-08-19T03:13:50.026Z,20.32
2017-08-19T03:14:22.300Z,20.32
2017-08-19T03:14:54.570Z,20.34
2017-08-19T03:15:26.853Z,20.27
2017-08-19T03:15:59.154Z,20.25
2017-08-19T03:16:31.436Z,20.29
2017-08-19T03:17:03.708Z,20.18
2017-08-19T03:17:36.017Z,20.26
2017-08-19T03:18:08.283Z,20.25
2017-08-19T03:18:40.539Z,20.3
2017-08-19T03:19:12.800Z,20.15
2017-08-19T03:19:45.058Z,20.27
2017-08-19T03:20:17.339Z,20.19
2017-08-19T03:20:49.673Z,20.26
2017-08-19T03:21:21.951Z,20.2
2017-08-19T03:21:54.309Z,20.16
2017-08-19T03:22:26.578Z,20.22
2017-08-19T03:22:58.845Z,20.27
2017-08-19T03:23:31.837Z,20.2
2017-08-19T03:24:04.110Z,20.25
2017-08-19T03:24:36.364Z,20.2
2017-08-19T03:25:08.633Z,20.26
2017-08-19T03:25:40.901Z,20.12
2017-08-19T03:26:13.197Z,20.19
2017-08-19T03:26:45.443Z,20.19
2017-08-19T03:27:17.699Z,20.16
2017-08-19T03:27:49.980Z,20.12
2017-08-19T03:28:22.238Z,20.18
2017-08-19T03:28:54.616Z,20.15
2017-08-19T03:29:26.864Z,20.18
2017-08-19T03:29:59.105Z,20.18
2017-08-19T03:30:31.389Z,20.19
2017-08-19T03:31:03.681Z,20.19
2017-08-19T03:31:35.961Z,20.18
2017-08-19T03:32:08.227Z,20.27
2017-08-19T03:32:40.506Z,20.15
2017-08-19T03:33:12.772Z,20.15
2017-08-19T03:33:45.058Z,20.2
2017-08-19T03:34:17.331Z,20.16
2017-08-19T03:34:49.599Z,20.26
2017-08-19T03:35:21.871Z,20.16
2017-08-19T03:35:54.138Z,20.23
2017-08-19T03:36:26.405Z,20.16
2017-08-19T03:36:58.699Z,20.11
2017-08-19T03:37:30.960Z,20.18
2017-08-19T03:38:03.229Z,20.16
2017-08-19T03:38:35.505Z,20.22
2017-08-19T03:39:07.749Z,20.18
2017-08-19T03:39:40.011Z,20.16
2017-08-19T03:40:12.261Z,20.19
2017-08-19T03:40:44.613Z,20.19
2017-08-19T03:41:16.855Z,20.22
2017-08-19T03:41:49.106Z,20.11
2017-08-19T03:42:21.350Z,20.18
2017-08-19T03:42:53.628Z,20.18
2017-08-19T03:43:25.897Z,20.11
2017-08-19T03:43:58.211Z,20.15
2017-08-19T03:44:30.489Z,20.08
2017-08-19T03:45:02.759Z,20.16
2017-08-19T03:45:35.048Z,20.05
2017-08-19T03:46:07.893Z,20.2
2017-08-19T03:46:40.175Z,20.08
2017-08-19T03:47:12.402Z,20.1
2017-08-19T03:47:44.641Z,20.15
2017-08-19T03:48:16.935Z,20.18
2017-08-19T03:48:49.190Z,20.11
2017-08-19T03:49:21.580Z,20.18
2017-08-19T03:49:53.845Z,20.1
2017-08-19T03:50:26.102Z,20.16
2017-08-19T03:50:58.380Z,20.12
2017-08-19T03:51:31.405Z,20.08
2017-08-19T03:52:03.676Z,20.12
2017-08-19T03:52:35.935Z,20.1
2017-08-19T03:53:08.341Z,20.07
2017-08-19T03:53:40.603Z,20.1
2017-08-19T03:54:12.872Z,20.08
2017-08-19T03:54:45.173Z,20.04
2017-08-19T03:55:17.461Z,20.08
2017-08-19T03:55:49.743Z,20.05
2017-08-19T03:56:22.008Z,20.11
2017-08-19T03:56:54.267Z,20.08
2017-08-19T03:57:26.533Z,20.05
2017-08-19T03:57:58.777Z,20.11
2017-08-19T03:58:31.055Z,20.11
2017-08-19T03:59:03.331Z,20.07
2017-08-19T03:59:35.600Z,20.04
2017-08-19T04:00:07.841Z,20.07
2017-08-19T04:00:40.111Z,20.05
2017-08-19T04:01:12.408Z,20.1
2017-08-19T04:01:44.662Z,20.05
2017-08-19T04:02:16.938Z,20.1
2017-08-19T04:02:49.213Z,20.02
2017-08-19T04:03:21.479Z,20.05
2017-08-19T04:03:53.714Z,20.05
2017-08-19T04:04:25.993Z,20.07
2017-08-19T04:04:58.259Z,20.02
2017-08-19T04:05:30.523Z,20.05
2017-08-19T04:06:02.785Z,20.05
2017-08-19T04:06:35.192Z,20.01
2017-08-19T04:07:07.455Z,20.08
2017-08-19T04:07:39.784Z,20.04
2017-08-19T04:08:12.057Z,20.08
2017-08-19T04:08:44.344Z,20.08
2017-08-19T04:09:16.612Z,19.98
2017-08-19T04:09:48.869Z,20.07
2017-08-19T04:10:21.151Z,20.07
2017-08-19T04:10:53.413Z,20.08
2017-08-19T04:11:25.763Z,19.98
2017-08-19T04:11:58.014Z,20.08
2017-08-19T04:12:30.348Z,20.07
2017-08-19T04:13:02.614Z,20
2017-08-19T04:13:34.892Z,20.05
2017-08-19T04:14:07.170Z,20
2017-08-19T04:14:39.583Z,20
2017-08-19T04:15:11.878Z,20.05
2017-08-19T04:15:44.156Z,20.07
2017-08-19T04:16:16.404Z,19.98
2017-08-19T04:16:48.694Z,19.98
2017-08-19T04:17:20.949Z,20.02
2017-08-19T04:17:53.214Z,20.01
2017-08-19T04:18:25.462Z,20.05
2017-08-19T04:18:57.732Z,20.02
2017-08-19T04:19:30.025Z,20.04
2017-08-19T04:20:02.288Z,20.01
2017-08-19T04:20:34.559Z,20.04
2017-08-19T04:21:06.826Z,20.04
2017-08-19T04:21:39.086Z,19.95
2017-08-19T04:22:11.502Z,19.98
2017-08-19T04:22:43.778Z,20
2017-08-19T04:23:16.039Z,19.95
2017-08-19T04:23:48.289Z,20.02
2017-08-19T04:24:20.546Z,20
2017-08-19T04:24:52.822Z,19.98
2017-08-19T04:25:25.163Z,19.95
2017-08-19T04:25:57.428Z,20.02
2017-08-19T04:26:29.704Z,19.95
2017-08-19T04:27:01.957Z,19.98
2017-08-19T04:27:34.208Z,19.95
2017-08-19T04:28:06.565Z,19.97
2017-08-19T04:28:38.858Z,19.97
2017-08-19T04:29:11.127Z,20.01
2017-08-19T04:29:43.380Z,19.92
2017-08-19T04:30:15.678Z,20.04
2017-08-19T04:30:47.924Z,19.98
2017-08-19T04:31:20.316Z,19.87
2017-08-19T04:31:52.594Z,19.95
2017-08-19T04:32:24.877Z,19.92
2017-08-19T04:32:57.121Z,19.93
2017-08-19T04:33:29.410Z,19.98
2017-08-19T04:34:01.677Z,20.04
2017-08-19T04:34:33.930Z,19.95
2017-08-19T04:35:06.192Z,20.02
2017-08-19T04:35:38.455Z,19.92
2017-08-19T04:36:10.707Z,19.95
2017-08-19T04:36:42.949Z,19.93
2017-08-19T04:37:15.205Z,19.95
2017-08-19T04:37:47.458Z,19.93
2017-08-19T04:38:19.720Z,19.89
2017-08-19T04:38:51.974Z,20.02
2017-08-19T04:39:24.231Z,20.01
2017-08-19T04:39:56.487Z,19.9
2017-08-19T04:40:28.789Z,19.9
2017-08-19T04:41:01.043Z,19.93
2017-08-19T04:41:33.295Z,19.89
2017-08-19T04:42:05.541Z,19.92
2017-08-19T04:42:37.802Z,19.98
2017-08-19T04:43:10.046Z,20
2017-08-19T04:43:42.339Z,19.86
2017-08-19T04:44:14.618Z,19.93
2017-08-19T04:44:46.876Z,19.98
2017-08-19T04:45:19.137Z,20
2017-08-19T04:45:51.393Z,19.95
2017-08-19T04:46:23.671Z,20.04
2017-08-19T04:46:55.936Z,20
2017-08-19T04:47:28.278Z,20
2017-08-19T04:48:00.519Z,19.89
2017-08-19T04:48:32.776Z,19.95
2017-08-19T04:49:05.047Z,19.92
2017-08-19T04:49:37.433Z,19.92
2017-08-19T04:50:09.723Z,20.01
2017-08-19T04:50:42.007Z,19.89
2017-08-19T04:51:14.272Z,19.92
2017-08-19T04:51:47.540Z,20
2017-08-19T04:52:19.802Z,19.9
2017-08-19T04:52:52.061Z,20.04
2017-08-19T04:53:24.299Z,19.92
2017-08-19T04:53:56.540Z,19.93
2017-08-19T04:54:28.814Z,19.95
2017-08-19T04:55:01.234Z,19.92
2017-08-19T04:55:33.503Z,19.98
2017-08-19T04:56:05.753Z,19.93
2017-08-19T04:56:38.016Z,20.01
2017-08-19T04:57:10.283Z,19.92
2017-08-19T04:57:42.706Z,19.98
2017-08-19T04:58:14.974Z,20.01
2017-08-19T04:58:47.241Z,19.95
2017-08-19T04:59:19.488Z,19.97
2017-08-19T04:59:51.796Z,19.98
2017-08-19T05:00:24.135Z,20
2017-08-19T05:00:56.395Z,20.01
2017-08-19T05:01:28.667Z,20.05
2017-08-19T05:02:00.897Z,20.04
2017-08-19T05:02:33.180Z,19.95
2017-08-19T05:03:05.496Z,20.08
2017-08-19T05:03:37.759Z,20.02
2017-08-19T05:04:10.008Z,20.05
2017-08-19T05:04:42.288Z,20.01
2017-08-19T05:05:14.569Z,20.07
2017-08-19T05:05:46.841Z,19.98
2017-08-19T05:06:19.109Z,19.97
2017-08-19T05:06:51.365Z,20
2017-08-19T05:07:23.606Z,20
2017-08-19T05:07:55.892Z,20.07
2017-08-19T05:08:28.157Z,19.98
2017-08-19T05:09:00.422Z,20.04
2017-08-19T05:09:32.714Z,19.98
2017-08-19T05:10:04.967Z,20.07
2017-08-19T05:10:37.227Z,20.08
2017-08-19T05:11:09.491Z,20.01
2017-08-19T05:11:41.741Z,20.01
2017-08-19T05:12:14.062Z,20.08
2017-08-19T05:12:46.333Z,20.05
2017-08-19T05:13:18.584Z,20.04
2017-08-19T05:13:50.918Z,20.08
2017-08-19T05:14:23.180Z,20.05
2017-08-19T05:14:55.513Z,20.02
2017-08-19T05:15:27.784Z,20.19
2017-08-19T05:16:00.051Z,20.05
2017-08-19T05:16:32.311Z,20.08
2017-08-19T05:17:04.591Z,20.05
2017-08-19T05:17:36.861Z,20.08
2017-08-19T05:18:09.119Z,20.08
2017-08-19T05:18:41.361Z,20.07
2017-08-19T05:19:13.623Z,20.12
2017-08-19T05:19:46.542Z,20.08
2017-08-19T05:20:18.828Z,20.07
2017-08-19T05:20:51.069Z,20.07
2017-08-19T05:21:23.332Z,20.1
2017-08-19T05:21:55.612Z,20.16
2017-08-19T05:22:27.877Z,20.15
2017-08-19T05:23:00.137Z,20.16
2017-08-19T05:23:32.408Z,20.11
2017-08-19T05:24:04.687Z,20.11
2017-08-19T05:24:36.955Z,20.11
2017-08-19T05:25:09.223Z,20.18
2017-08-19T05:25:42.369Z,20.18
2017-08-19T05:26:14.732Z,20.12
2017-08-19T05:26:47.009Z,20.08
2017-08-19T05:27:19.290Z,20.16
2017-08-19T05:27:51.537Z,20.11
2017-08-19T05:28:23.779Z,20.11
2017-08-19T05:28:56.037Z,20.11
2017-08-19T05:29:28.302Z,20.2
2017-08-19T05:30:00.620Z,20.18
2017-08-19T05:30:32.876Z,20.25
2017-08-19T05:31:05.128Z,20.18
2017-08-19T05:31:37.394Z,20.22
2017-08-19T05:32:09.662Z,20.18
2017-08-19T05:32:41.944Z,20.16
2017-08-19T05:33:14.253Z,20.22
2017-08-19T05:33:46.521Z,20.15
2017-08-19T05:34:18.779Z,20.16
2017-08-19T05:34:51.154Z,20.29
2017-08-19T05:35:23.414Z,20.16
2017-08-19T05:35:55.706Z,20.2
2017-08-19T05:36:27.955Z,20.3
2017-08-19T05:37:00.206Z,20.15
2017-08-19T05:37:32.454Z,20.32
2017-08-19T05:38:04.735Z,20.26
2017-08-19T05:38:36.999Z,20.3
2017-08-19T05:39:09.259Z,20.22
2017-08-19T05:39:41.533Z,20.34
2017-08-19T05:40:13.803Z,20.25
2017-08-19T05:40:46.074Z,20.27
2017-08-19T05:41:18.322Z,20.25
2017-08-19T05:41:50.667Z,20.27
2017-08-19T05:42:22.950Z,20.22
2017-08-19T05:42:55.221Z,20.25
2017-08-19T05:43:27.482Z,20.35
2017-08-19T05:43:59.739Z,20.34
2017-08-19T05:44:32.024Z,20.22
2017-08-19T05:45:04.293Z,20.32
2017-08-19T05:45:36.564Z,20.34
2017-08-19T05:46:08.804Z,20.35
2017-08-19T05:46:41.047Z,20.41
2017-08-19T05:47:13.311Z,20.35
2017-08-19T05:47:45.676Z,20.32
2017-08-19T05:48:17.930Z,20.37
2017-08-19T05:48:50.176Z,20.41
2017-08-19T05:49:22.448Z,20.37
2017-08-19T05:49:54.717Z,20.48
2017-08-19T05:50:26.984Z,20.46
2017-08-19T05:50:59.237Z,20.37
2017-08-19T05:51:31.511Z,20.46
2017-08-19T05:52:03.789Z,20.51
2017-08-19T05:52:36.037Z,20.46
2017-08-19T05:53:08.937Z,20.51
2017-08-19T05:53:41.218Z,20.49
2017-08-19T05:54:13.469Z,20.53
2017-08-19T05:54:45.807Z,20.6
2017-08-19T05:55:18.072Z,20.63
2017-08-19T05:55:50.313Z,20.58
2017-08-19T05:56:22.559Z,20.6
2017-08-19T05:56:54.806Z,20.61
2017-08-19T05:57:27.059Z,20.58
2017-08-19T05:57:59.315Z,20.53
2017-08-19T05:58:31.631Z,20.6
2017-08-19T05:59:03.903Z,20.61
2017-08-19T05:59:36.159Z,20.63
2017-08-19T06:00:08.426Z,20.64
2017-08-19T06:00:40.678Z,20.63
2017-08-19T06:01:12.963Z,20.72
2017-08-19T06:01:45.221Z,20.72
2017-08-19T06:02:17.490Z,20.72
2017-08-19T06:02:49.804Z,20.66
2017-08-19T06:03:22.068Z,20.76
2017-08-19T06:03:54.314Z,20.76
2017-08-19T06:04:26.589Z,20.74
2017-08-19T06:04:58.824Z,20.72
2017-08-19T06:05:31.104Z,20.81
2017-08-19T06:06:03.379Z,20.79
2017-08-19T06:06:35.623Z,20.86
2017-08-19T06:07:07.897Z,20.79
2017-08-19T06:07:40.161Z,20.86
2017-08-19T06:08:12.539Z,20.79
2017-08-19T06:08:44.815Z,20.81
2017-08-19T06:09:17.086Z,20.86
2017-08-19T06:09:49.351Z,20.9
2017-08-19T06:10:21.639Z,20.79
2017-08-19T06:10:53.888Z,20.91
2017-08-19T06:11:26.152Z,20.88
2017-08-19T06:11:58.405Z,20.83
2017-08-19T06:12:30.652Z,20.88
2017-08-19T06:13:02.921Z,20.96
2017-08-19T06:13:35.192Z,20.91
2017-08-19T06:14:07.467Z,21.01
2017-08-19T06:14:39.749Z,21
2017-08-19T06:15:12.043Z,20.94
2017-08-19T06:15:44.324Z,21.08
2017-08-19T06:16:16.600Z,21.01
2017-08-19T06:16:48.892Z,21.01
2017-08-19T06:17:21.175Z,21.01
2017-08-19T06:17:53.468Z,21.04
2017-08-19T06:18:25.744Z,21.03
2017-08-19T06:18:58.021Z,21.09
2017-08-19T06:19:30.318Z,21.06
2017-08-19T06:20:02.623Z,21.12
2017-08-19T06:20:34.943Z,21.12
2017-08-19T06:21:07.246Z,21.16
2017-08-19T06:21:39.546Z,21.09
2017-08-19T06:22:11.854Z,21.16
2017-08-19T06:22:44.138Z,21.25
2017-08-19T06:23:16.437Z,21.18
2017-08-19T06:23:48.841Z,21.25
2017-08-19T06:24:21.089Z,21.19
2017-08-19T06:24:53.336Z,21.33
2017-08-19T06:25:25.596Z,21.19
2017-08-19T06:25:57.852Z,21.27
2017-08-19T06:26:30.134Z,21.3
2017-08-19T06:27:02.368Z,21.27
2017-08-19T06:27:34.673Z,21.3
2017-08-19T06:28:06.936Z,21.33
2017-08-19T06:28:39.216Z,21.34
2017-08-19T06:29:11.482Z,21.34
2017-08-19T06:29:43.763Z,21.36
2017-08-19T06:30:16.015Z,21.36
2017-08-19T06:30:48.260Z,21.41
2017-08-19T06:31:20.543Z,21.36
2017-08-19T06:31:52.806Z,21.4
2017-08-19T06:32:25.142Z,21.49
2017-08-19T06:32:57.386Z,21.43
2017-08-19T06:33:29.689Z,21.53
2017-08-19T06:34:01.946Z,21.43
2017-08-19T06:34:34.201Z,21.56
2017-08-19T06:35:06.449Z,21.51
2017-08-19T06:35:39.449Z,21.58
2017-08-19T06:36:11.701Z,21.52
2017-08-19T06:36:43.945Z,21.64
2017-08-19T06:37:16.265Z,21.62
2017-08-19T06:37:48.556Z,21.66
2017-08-19T06:38:20.829Z,21.62
2017-08-19T06:38:53.106Z,21.59
2017-08-19T06:39:25.419Z,21.7
2017-08-19T06:39:57.683Z,21.77
2017-08-19T06:40:29.953Z,21.68
2017-08-19T06:41:02.289Z,21.71
2017-08-19T06:41:34.543Z,21.76
2017-08-19T06:42:06.810Z,21.73
2017-08-19T06:42:39.107Z,21.77
2017-08-19T06:43:11.375Z,21.8
2017-08-19T06:43:43.650Z,21.74
2017-08-19T06:44:15.931Z,21.8
2017-08-19T06:44:48.216Z,21.86
2017-08-19T06:45:20.480Z,21.92
2017-08-19T06:45:52.773Z,21.85
2017-08-19T06:46:25.070Z,21.93
2017-08-19T06:46:57.358Z,21.93
2017-08-19T06:47:29.655Z,21.94
2017-08-19T06:48:01.943Z,21.96
2017-08-19T06:48:34.253Z,21.93
2017-08-19T06:49:06.551Z,21.96
2017-08-19T06:49:38.848Z,21.9
2017-08-19T06:50:11.142Z,21.94
2017-08-19T06:50:43.422Z,21.99
2017-08-19T06:51:15.736Z,22.09
2017-08-19T06:51:48.025Z,22.08
2017-08-19T06:52:20.327Z,22.14
2017-08-19T06:52:52.617Z,22.11
2017-08-19T06:53:24.902Z,22.11
2017-08-19T06:53:57.198Z,22.14
2017-08-19T06:54:29.486Z,22.12
2017-08-19T06:55:01.773Z,22.26
2017-08-19T06:55:34.076Z,22.15
2017-08-19T06:56:06.370Z,22.2
2017-08-19T06:56:38.684Z,22.24
2017-08-19T06:57:10.985Z,22.24
2017-08-19T06:57:43.290Z,22.24